Ana Sayfa
METAR-TAF:

METAR-TAF

Havaalanları :

Big Spring McMahon-Wrinkle Airport

Big Spring, Teksas, Amerika Birleşik Devletleri

Enlem: 32-12N, Boylam: 101-31W, yükseklik: 784 m

Güncel hava durumu gözlemi

Rapor saat 09:55 UTC de 14 dakika önce yapıldı.
Rüzgar güney/güneydoğudan 12 kt ve 17 kt'a kadar ani rüzgarlar
Sıcaklık 25°C
Nem 69%
Basınç 1014 hPa
Görüş mesafesi: 16.1 km
Açık gökyüzü

METAR: KBPG 200955Z AUTO 16012G17KT 10SM CLR 25/19 A2995 RMK AO2 T02450185

Saat: 05:09 (10:09 UTC)


TAF: eksik

4.000'den fazla havaalanı için hava durumu gözlemleri ve tahminleri (METAR ve TAF raporları).

Kullanılabilir istasyonlar harita üzerinde sarı ve kırmızı noktalarla gösterilir.

İstasyonun adını görmek için fareyi noktanın üzerinde gezdirin.

Sonrasında hava gözlem ve tahminlerini görmek için tıklayın.

Haritayı değiştirmek için: yaklaştırmak için siyah artı işaretli yeşil düğmeye ve uzaklaştırmak için de eksi işaretli düğmeye hızla tıklayın; bitişik haritalar için yeşil okları kullanın.


METAR-TAF: